createdAt,value
2022-09-20T00:01:32.923Z,100.00
2022-09-20T00:04:05.184Z,100.00
2022-09-20T00:06:34.024Z,100.00
2022-09-20T00:09:03.163Z,100.00
2022-09-20T00:11:33.338Z,100.00
2022-09-20T00:14:02.066Z,100.00
2022-09-20T00:16:39.224Z,100.00
2022-09-20T00:19:08.185Z,100.00
2022-09-20T00:21:38.001Z,100.00
2022-09-20T00:24:06.194Z,100.00
2022-09-20T00:26:33.891Z,100.00
2022-09-20T00:29:01.662Z,100.00
2022-09-20T00:31:29.397Z,100.00
2022-09-20T00:34:15.998Z,100.00
2022-09-20T00:36:43.919Z,100.00
2022-09-20T00:39:13.382Z,100.00
2022-09-20T00:41:40.409Z,100.00
2022-09-20T00:44:47.996Z,100.00
2022-09-20T00:47:22.284Z,100.00
2022-09-20T00:49:52.128Z,100.00
2022-09-20T00:52:20.773Z,100.00
2022-09-20T00:54:48.993Z,100.00
2022-09-20T00:57:16.147Z,100.00
2022-09-20T00:59:48.184Z,100.00
2022-09-20T01:02:30.919Z,100.00
2022-09-20T01:04:59.507Z,100.00
2022-09-20T01:07:27.473Z,100.00
2022-09-20T01:09:55.148Z,100.00
2022-09-20T01:12:26.579Z,100.00
2022-09-20T01:14:55.549Z,100.00
2022-09-20T01:17:26.712Z,100.00
2022-09-20T01:19:56.852Z,100.00
2022-09-20T01:22:42.168Z,100.00
2022-09-20T01:25:23.464Z,100.00
2022-09-20T01:27:53.154Z,100.00
2022-09-20T01:30:39.359Z,100.00
2022-09-20T01:33:26.044Z,100.00
2022-09-20T01:35:55.307Z,100.00
2022-09-20T01:39:13.168Z,100.00
2022-09-20T01:41:46.951Z,100.00
2022-09-20T01:44:37.241Z,100.00
2022-09-20T01:47:17.346Z,100.00
2022-09-20T01:49:56.426Z,100.00
2022-09-20T01:52:35.863Z,100.00
2022-09-20T01:55:15.370Z,100.00
2022-09-20T01:58:03.221Z,100.00
2022-09-20T02:01:21.373Z,100.00
2022-09-20T02:04:13.093Z,100.00
2022-09-20T02:07:01.895Z,100.00
2022-09-20T02:09:44.369Z,100.00
2022-09-20T02:12:20.380Z,100.00
2022-09-20T02:15:19.738Z,100.00
2022-09-20T02:18:17.397Z,100.00
2022-09-20T02:20:59.148Z,100.00
2022-09-20T02:23:47.945Z,100.00
2022-09-20T02:26:26.367Z,100.00
2022-09-20T02:29:11.725Z,100.00
2022-09-20T02:32:03.655Z,100.00
2022-09-20T02:34:30.714Z,100.00
2022-09-20T02:37:34.491Z,100.00
2022-09-20T02:40:07.849Z,100.00
2022-09-20T02:43:10.360Z,100.00
2022-09-20T02:45:45.845Z,100.00
2022-09-20T02:48:19.458Z,100.00
2022-09-20T02:51:02.067Z,100.00
2022-09-20T02:53:37.098Z,100.00
2022-09-20T02:56:33.087Z,100.00
2022-09-20T02:59:28.551Z,100.00
2022-09-20T03:02:30.987Z,100.00
2022-09-20T03:05:01.221Z,100.00
2022-09-20T03:07:32.699Z,100.00
2022-09-20T03:10:05.917Z,100.00
2022-09-20T03:12:51.557Z,100.00
2022-09-20T03:15:54.300Z,100.00
2022-09-20T03:18:37.587Z,100.00
2022-09-20T03:21:23.206Z,100.00
2022-09-20T03:23:56.120Z,100.00
2022-09-20T03:26:59.994Z,100.00
2022-09-20T03:29:47.207Z,100.00
2022-09-20T03:32:48.412Z,100.00
2022-09-20T03:35:38.130Z,100.00
2022-09-20T03:38:44.152Z,100.00
2022-09-20T03:41:33.490Z,100.00
2022-09-20T03:44:19.751Z,99.92
2022-09-20T03:46:48.382Z,100.00
2022-09-20T03:49:37.381Z,99.85
2022-09-20T03:52:27.243Z,99.72
2022-09-20T03:55:15.532Z,99.59
2022-09-20T03:58:08.624Z,99.43
2022-09-20T04:01:06.117Z,99.10
2022-09-20T04:04:04.602Z,98.90
2022-09-20T04:06:48.525Z,98.65
2022-09-20T04:09:35.101Z,98.15
2022-09-20T04:12:13.861Z,98.01
2022-09-20T04:14:50.602Z,97.86
2022-09-20T04:17:20.838Z,97.58
2022-09-20T04:20:29.109Z,96.93
2022-09-20T04:22:59.451Z,96.49
2022-09-20T04:25:43.599Z,96.67
2022-09-20T04:28:34.874Z,96.41
2022-09-20T04:31:20.136Z,95.94
2022-09-20T04:33:54.148Z,95.46
2022-09-20T04:36:38.606Z,94.81
2022-09-20T04:39:27.756Z,94.12
2022-09-20T04:42:24.023Z,93.26
2022-09-20T04:45:31.115Z,92.59
2022-09-20T04:48:18.412Z,92.88
2022-09-20T04:50:45.378Z,93.94
2022-09-20T04:53:45.048Z,93.92
2022-09-20T04:56:22.117Z,93.81
2022-09-20T04:59:10.712Z,93.12
2022-09-20T05:01:55.805Z,93.46
2022-09-20T05:04:56.891Z,92.61
2022-09-20T05:07:44.254Z,92.85
2022-09-20T05:10:53.328Z,91.99
2022-09-20T05:13:54.001Z,91.18
2022-09-20T05:16:29.759Z,91.21
2022-09-20T05:18:59.519Z,90.71
2022-09-20T05:21:29.743Z,90.87
2022-09-20T05:24:23.067Z,89.96
2022-09-20T05:27:04.329Z,89.48
2022-09-20T05:29:43.411Z,89.23
2022-09-20T05:32:34.992Z,88.64
2022-09-20T05:35:12.626Z,88.17
2022-09-20T05:38:00.873Z,87.88
2022-09-20T05:41:10.768Z,87.33
2022-09-20T05:44:12.877Z,87.32
2022-09-20T05:47:14.129Z,87.29
2022-09-20T05:50:00.052Z,87.22
2022-09-20T05:52:45.710Z,88.10
2022-09-20T05:55:30.829Z,88.66
2022-09-20T05:58:16.247Z,89.10
2022-09-20T06:00:51.576Z,89.39
2022-09-20T06:03:48.753Z,89.94
2022-09-20T06:06:32.571Z,89.65
2022-09-20T06:09:19.577Z,90.08
2022-09-20T06:12:13.592Z,89.89
2022-09-20T06:15:03.625Z,88.66
2022-09-20T06:17:45.452Z,86.38
2022-09-20T06:20:27.744Z,84.57
2022-09-20T06:22:57.492Z,79.92
2022-09-20T06:25:45.384Z,72.92
2022-09-20T06:28:21.335Z,71.53
2022-09-20T06:30:52.093Z,70.74
2022-09-20T06:33:26.922Z,71.18
2022-09-20T06:36:27.767Z,69.98
2022-09-20T06:39:48.654Z,70.06
2022-09-20T06:42:16.415Z,69.32
2022-09-20T06:44:43.552Z,70.10
2022-09-20T06:47:12.069Z,70.76
2022-09-20T06:49:41.375Z,71.58
2022-09-20T06:52:14.998Z,70.96
2022-09-20T06:54:47.209Z,71.57
2022-09-20T06:57:23.065Z,71.66
2022-09-20T06:59:50.405Z,72.06
2022-09-20T07:02:17.971Z,72.49
2022-09-20T07:04:45.328Z,72.57
2022-09-20T07:07:19.131Z,73.24
2022-09-20T07:09:47.021Z,74.04
2022-09-20T07:12:14.142Z,73.73
2022-09-20T07:14:42.886Z,73.48
2022-09-20T07:17:10.219Z,73.73
2022-09-20T07:19:37.488Z,74.48
2022-09-20T07:22:04.670Z,75.10
2022-09-20T07:24:32.399Z,75.31
2022-09-20T07:27:02.225Z,75.55
2022-09-20T07:29:30.223Z,74.88
2022-09-20T07:31:58.958Z,73.33
2022-09-20T07:34:27.403Z,73.23
2022-09-20T07:36:55.036Z,72.67
2022-09-20T07:39:22.518Z,72.62
2022-09-20T07:41:50.823Z,72.30
2022-09-20T07:44:22.638Z,70.35
2022-09-20T07:46:54.480Z,68.72
2022-09-20T07:49:23.627Z,68.33
2022-09-20T07:51:50.930Z,68.75
2022-09-20T07:54:18.788Z,69.02
2022-09-20T07:56:48.490Z,69.33
2022-09-20T07:59:18.746Z,70.35
2022-09-20T08:01:48.599Z,70.77
2022-09-20T08:04:16.137Z,70.96
2022-09-20T08:06:45.190Z,70.67
2022-09-20T08:09:13.784Z,70.12
2022-09-20T08:11:42.938Z,69.69
2022-09-20T08:14:18.191Z,68.68
2022-09-20T08:16:48.922Z,68.30
2022-09-20T08:19:21.868Z,68.58
2022-09-20T08:21:50.072Z,69.12
2022-09-20T08:24:21.440Z,69.25
2022-09-20T08:26:48.956Z,69.11
2022-09-20T08:29:16.455Z,67.04
2022-09-20T08:31:44.183Z,66.09
2022-09-20T08:34:15.321Z,65.68
2022-09-20T08:36:46.469Z,65.29
2022-09-20T08:42:25.089Z,63.24
2022-09-20T08:44:58.921Z,62.78
2022-09-20T08:47:31.371Z,62.63
2022-09-20T08:50:00.906Z,62.14
2022-09-20T08:52:36.963Z,60.96
2022-09-20T08:55:23.289Z,60.03
2022-09-20T08:57:56.407Z,61.88
2022-09-20T09:00:26.827Z,61.95
2022-09-20T09:03:07.403Z,62.48
2022-09-20T09:05:47.929Z,62.69
2022-09-20T09:08:19.341Z,62.92
2022-09-20T09:10:54.857Z,63.05
2022-09-20T09:14:02.199Z,63.46
2022-09-20T09:16:35.496Z,64.47
2022-09-20T09:19:34.336Z,64.34
2022-09-20T09:22:04.411Z,64.41
2022-09-20T09:24:31.678Z,64.49
2022-09-20T09:27:08.070Z,64.17
2022-09-20T09:29:36.057Z,64.92
2022-09-20T09:32:31.332Z,64.93
2022-09-20T09:35:24.892Z,65.71
2022-09-20T09:38:00.953Z,65.14
2022-09-20T09:40:32.613Z,64.62
2022-09-20T09:43:02.778Z,65.18
2022-09-20T09:45:31.788Z,65.54
2022-09-20T09:48:00.814Z,65.39
2022-09-20T09:50:32.001Z,65.39
2022-09-20T09:53:23.062Z,65.98
2022-09-20T09:55:52.888Z,66.05
2022-09-20T09:58:49.392Z,65.33
2022-09-20T10:01:33.642Z,65.17
2022-09-20T10:04:10.067Z,64.97
2022-09-20T10:06:52.466Z,63.66
2022-09-20T10:09:42.782Z,63.99
2022-09-20T10:12:34.389Z,64.48
2022-09-20T10:15:07.334Z,64.49
2022-09-20T10:17:53.421Z,64.29
2022-09-20T10:20:44.161Z,64.36
2022-09-20T10:24:01.339Z,64.46
2022-09-20T10:26:51.696Z,64.38
2022-09-20T10:29:33.760Z,64.27
2022-09-20T10:32:19.106Z,63.28
2022-09-20T10:35:11.924Z,63.42
2022-09-20T10:38:20.301Z,62.82
2022-09-20T10:41:18.258Z,63.66
2022-09-20T10:44:05.507Z,64.86
2022-09-20T10:46:52.723Z,65.07
2022-09-20T10:50:08.178Z,64.74
2022-09-20T10:52:49.440Z,64.09
2022-09-20T10:55:47.389Z,63.91
2022-09-20T10:58:35.673Z,63.98
2022-09-20T11:01:24.463Z,64.47
2022-09-20T11:04:10.360Z,65.51
2022-09-20T11:07:04.360Z,66.81
2022-09-20T11:09:38.102Z,67.02
2022-09-20T11:12:24.916Z,65.83
2022-09-20T11:15:30.465Z,64.58
2022-09-20T11:18:15.409Z,63.64
2022-09-20T11:20:50.859Z,63.24
2022-09-20T11:23:26.509Z,63.71
2022-09-20T11:25:58.831Z,64.99
2022-09-20T11:28:26.065Z,65.58
2022-09-20T11:31:05.291Z,65.67
2022-09-20T11:34:16.070Z,65.31
2022-09-20T11:36:53.176Z,65.34
2022-09-20T11:39:51.739Z,65.80
2022-09-20T11:42:27.855Z,67.11
2022-09-20T11:44:55.902Z,67.75
2022-09-20T11:47:52.879Z,67.93
2022-09-20T11:50:35.944Z,69.46
2022-09-20T11:53:21.744Z,70.33
2022-09-20T11:56:13.695Z,71.55
2022-09-20T11:58:55.563Z,70.86
2022-09-20T12:01:42.972Z,71.03
2022-09-20T12:04:32.985Z,69.88
2022-09-20T12:07:28.323Z,69.51
2022-09-20T12:10:03.958Z,68.34
2022-09-20T12:12:51.207Z,68.09
2022-09-20T12:15:26.790Z,67.43
2022-09-20T12:17:57.399Z,67.52
2022-09-20T12:20:39.826Z,67.89
2022-09-20T12:23:40.332Z,68.09
2022-09-20T12:26:20.962Z,68.88
2022-09-20T12:28:59.321Z,68.62
2022-09-20T12:31:29.382Z,69.26
2022-09-20T12:34:10.253Z,69.29
2022-09-20T12:36:40.090Z,70.11
2022-09-20T12:39:22.562Z,70.51
2022-09-20T12:42:02.637Z,69.99
2022-09-20T12:44:47.102Z,70.30
2022-09-20T12:47:23.654Z,70.46
2022-09-20T12:50:11.581Z,70.73
2022-09-20T12:52:58.333Z,69.89
2022-09-20T12:55:47.190Z,69.58
2022-09-20T12:58:17.304Z,68.68
2022-09-20T13:01:11.904Z,67.84
2022-09-20T13:03:45.236Z,68.39
2022-09-20T13:06:16.760Z,69.51
2022-09-20T13:08:48.469Z,69.82
2022-09-20T13:11:19.444Z,70.27
2022-09-20T13:14:04.898Z,70.37
2022-09-20T13:16:53.063Z,69.93
2022-09-20T13:19:45.424Z,69.45
2022-09-20T13:22:51.302Z,70.11
2022-09-20T13:25:21.559Z,70.21
2022-09-20T13:28:21.000Z,70.58
2022-09-20T13:30:49.001Z,70.69
2022-09-20T13:33:23.473Z,71.45
2022-09-20T13:35:54.697Z,71.63
2022-09-20T13:38:31.994Z,71.73
2022-09-20T13:41:13.199Z,72.11
2022-09-20T13:43:43.692Z,71.27
2022-09-20T13:46:25.508Z,71.24
2022-09-20T13:49:07.137Z,71.20
2022-09-20T13:51:35.298Z,71.72
2022-09-20T13:54:29.004Z,71.82
2022-09-20T13:57:00.061Z,72.65
2022-09-20T13:59:31.956Z,72.40
2022-09-20T14:01:59.551Z,72.42
2022-09-20T14:04:29.888Z,72.40
2022-09-20T14:07:00.975Z,73.25
2022-09-20T14:09:34.273Z,73.50
2022-09-20T14:12:03.273Z,74.25
2022-09-20T14:14:33.309Z,75.26
2022-09-20T14:17:04.498Z,74.70
2022-09-20T14:19:58.494Z,75.65
2022-09-20T14:22:28.705Z,76.64
2022-09-20T14:25:18.711Z,76.70
2022-09-20T14:27:45.884Z,77.06
2022-09-20T14:30:33.402Z,77.57
2022-09-20T14:33:01.324Z,77.74
2022-09-20T14:35:29.077Z,78.08
2022-09-20T14:38:08.882Z,77.08
2022-09-20T14:40:46.494Z,77.08
2022-09-20T14:43:28.761Z,77.11
2022-09-20T14:46:11.234Z,76.66
2022-09-20T14:48:42.862Z,76.85
2022-09-20T14:51:16.404Z,76.72
2022-09-20T14:53:48.630Z,77.03
2022-09-20T14:56:17.019Z,77.48
2022-09-20T14:59:03.450Z,78.70
2022-09-20T15:01:32.068Z,78.51
2022-09-20T15:03:59.408Z,78.66
2022-09-20T15:06:26.507Z,78.89
2022-09-20T15:08:56.594Z,79.88
2022-09-20T15:11:24.084Z,80.15
2022-09-20T15:13:51.065Z,81.14
2022-09-20T15:16:20.674Z,81.46
2022-09-20T15:18:48.003Z,81.96
2022-09-20T15:21:15.189Z,82.48
2022-09-20T15:23:42.496Z,83.36
2022-09-20T15:26:13.342Z,83.69
2022-09-20T15:28:40.406Z,84.72
2022-09-20T15:31:07.671Z,85.50
2022-09-20T15:33:34.758Z,86.11
2022-09-20T15:36:03.536Z,86.45
2022-09-20T15:38:30.810Z,87.27
2022-09-20T15:41:00.880Z,88.22
2022-09-20T15:43:30.415Z,89.07
2022-09-20T15:46:03.419Z,89.69
2022-09-20T15:48:30.914Z,90.16
2022-09-20T15:51:02.048Z,91.03
2022-09-20T15:53:32.033Z,91.92
2022-09-20T15:56:03.057Z,92.09
2022-09-20T15:58:35.902Z,92.57
2022-09-20T16:01:06.106Z,93.24
2022-09-20T16:03:34.662Z,93.94
2022-09-20T16:06:07.079Z,94.71
2022-09-20T16:08:40.769Z,95.27
2022-09-20T16:11:10.920Z,95.97
2022-09-20T16:13:38.936Z,96.72
2022-09-20T16:16:08.709Z,97.66
2022-09-20T16:18:55.827Z,98.29
2022-09-20T16:21:23.470Z,98.25
2022-09-20T16:23:56.307Z,98.92
2022-09-20T16:26:26.187Z,99.21
2022-09-20T16:28:55.877Z,99.73
2022-09-20T16:31:34.890Z,100.00
2022-09-20T16:34:04.172Z,100.00
2022-09-20T16:36:34.730Z,100.00
2022-09-20T16:39:03.332Z,100.00
2022-09-20T16:41:32.561Z,100.00
2022-09-20T16:43:59.977Z,100.00
2022-09-20T16:46:28.053Z,100.00
2022-09-20T16:48:58.171Z,100.00
2022-09-20T16:51:30.171Z,100.00
2022-09-20T16:53:57.260Z,100.00
2022-09-20T16:56:30.035Z,100.00
2022-09-20T16:58:57.321Z,100.00
2022-09-20T17:01:24.502Z,100.00
2022-09-20T17:03:52.174Z,100.00
2022-09-20T17:06:19.849Z,100.00
2022-09-20T17:08:48.784Z,100.00
2022-09-20T17:11:19.626Z,100.00
2022-09-20T17:13:47.489Z,100.00
2022-09-20T17:16:16.676Z,100.00
2022-09-20T17:18:43.892Z,100.00
2022-09-20T17:21:14.051Z,100.00
2022-09-20T17:23:51.117Z,100.00
2022-09-20T17:26:33.385Z,100.00
2022-09-20T17:29:02.435Z,100.00
2022-09-20T17:31:35.777Z,100.00
2022-09-20T17:34:05.136Z,100.00
2022-09-20T17:36:34.854Z,100.00
2022-09-20T17:39:04.446Z,100.00
2022-09-20T17:41:33.848Z,100.00
2022-09-20T17:44:08.312Z,100.00
2022-09-20T17:46:37.831Z,100.00
2022-09-20T17:49:10.264Z,100.00
2022-09-20T17:51:40.685Z,100.00
2022-09-20T17:54:11.003Z,100.00
2022-09-20T17:56:38.773Z,100.00
2022-09-20T17:59:10.150Z,100.00
2022-09-20T18:01:42.082Z,100.00
2022-09-20T18:04:10.291Z,100.00
2022-09-20T18:06:44.745Z,100.00
2022-09-20T18:09:15.816Z,100.00
2022-09-20T18:11:49.655Z,100.00
2022-09-20T18:14:27.709Z,100.00
2022-09-20T18:16:58.185Z,100.00
2022-09-20T18:19:32.946Z,100.00
2022-09-20T18:22:02.411Z,100.00
2022-09-20T18:24:30.531Z,100.00
2022-09-20T18:26:57.811Z,100.00
2022-09-20T18:29:25.239Z,100.00
2022-09-20T18:31:54.667Z,100.00
2022-09-20T18:34:26.927Z,100.00
2022-09-20T18:36:56.331Z,100.00
2022-09-20T18:39:25.340Z,100.00
2022-09-20T18:41:53.436Z,100.00
2022-09-20T18:44:22.178Z,100.00
2022-09-20T18:46:51.381Z,100.00
2022-09-20T18:49:18.679Z,100.00
2022-09-20T18:51:47.513Z,100.00
2022-09-20T18:54:15.547Z,100.00
2022-09-20T18:56:45.098Z,100.00
2022-09-20T18:59:21.165Z,100.00
2022-09-20T19:02:11.919Z,100.00
2022-09-20T19:05:05.843Z,100.00
2022-09-20T19:07:48.706Z,100.00
2022-09-20T19:10:42.276Z,100.00
2022-09-20T19:13:09.152Z,100.00
2022-09-20T19:16:11.369Z,100.00
2022-09-20T19:19:03.147Z,100.00
2022-09-20T19:22:17.687Z,100.00
2022-09-20T19:25:01.508Z,100.00
2022-09-20T19:27:30.870Z,100.00
2022-09-20T19:29:58.205Z,100.00
2022-09-20T19:32:28.263Z,100.00
2022-09-20T19:35:02.030Z,100.00
2022-09-20T19:38:04.249Z,100.00
2022-09-20T19:41:09.486Z,100.00
2022-09-20T19:44:04.459Z,100.00
2022-09-20T19:47:01.446Z,100.00
2022-09-20T19:49:51.300Z,100.00
2022-09-20T19:52:19.059Z,100.00
2022-09-20T19:54:46.881Z,100.00
2022-09-20T19:57:29.233Z,100.00
2022-09-20T19:59:58.088Z,100.00
2022-09-20T20:02:25.400Z,100.00
2022-09-20T20:04:54.058Z,100.00
2022-09-20T20:07:38.701Z,100.00
2022-09-20T20:10:21.039Z,100.00
2022-09-20T20:13:33.919Z,100.00
2022-09-20T20:16:43.930Z,100.00
2022-09-20T20:19:39.148Z,100.00
2022-09-20T20:22:30.494Z,100.00
2022-09-20T20:25:03.918Z,100.00
2022-09-20T20:27:41.841Z,100.00
2022-09-20T20:30:12.834Z,100.00
2022-09-20T20:32:42.564Z,100.00
2022-09-20T20:35:15.173Z,100.00
2022-09-20T20:37:42.594Z,100.00
2022-09-20T20:40:14.988Z,100.00
2022-09-20T20:42:42.974Z,100.00
2022-09-20T20:45:11.892Z,100.00
2022-09-20T20:47:42.759Z,100.00
2022-09-20T20:50:12.903Z,100.00
2022-09-20T20:52:40.126Z,100.00
2022-09-20T20:55:07.854Z,100.00
2022-09-20T20:57:36.195Z,100.00
2022-09-20T21:00:03.782Z,100.00
2022-09-20T21:02:32.908Z,100.00
2022-09-20T21:05:01.354Z,100.00
2022-09-20T21:07:28.799Z,100.00
2022-09-20T21:09:55.812Z,100.00
2022-09-20T21:12:23.807Z,100.00
2022-09-20T21:14:50.883Z,100.00
2022-09-20T21:17:18.055Z,100.00
2022-09-20T21:19:45.157Z,100.00
2022-09-20T21:22:12.206Z,100.00
2022-09-20T21:24:39.203Z,100.00
2022-09-20T21:27:06.210Z,100.00
2022-09-20T21:29:33.832Z,100.00
2022-09-20T21:32:00.972Z,100.00
2022-09-20T21:34:27.916Z,100.00
2022-09-20T21:36:55.015Z,100.00
2022-09-20T21:39:21.970Z,100.00
2022-09-20T21:41:49.181Z,100.00
2022-09-20T21:44:17.723Z,100.00
2022-09-20T21:46:44.982Z,100.00
2022-09-20T21:49:12.629Z,100.00
2022-09-20T21:51:42.831Z,100.00
2022-09-20T21:54:10.185Z,100.00
2022-09-20T21:56:38.641Z,100.00
2022-09-20T21:59:07.225Z,100.00
2022-09-20T22:01:37.036Z,100.00
2022-09-20T22:04:07.094Z,100.00
2022-09-20T22:06:42.471Z,100.00
2022-09-20T22:09:12.304Z,100.00
2022-09-20T22:11:44.808Z,100.00
2022-09-20T22:14:14.036Z,100.00
2022-09-20T22:16:43.326Z,100.00
2022-09-20T22:19:12.901Z,100.00
2022-09-20T22:21:46.841Z,100.00
2022-09-20T22:24:15.321Z,100.00
2022-09-20T22:26:50.501Z,100.00
2022-09-20T22:29:18.744Z,100.00
2022-09-20T22:31:47.730Z,100.00
2022-09-20T22:34:17.440Z,100.00
2022-09-20T22:36:46.627Z,100.00
2022-09-20T22:39:14.843Z,100.00
2022-09-20T22:41:42.969Z,100.00
2022-09-20T22:44:11.145Z,100.00
2022-09-20T22:46:38.987Z,100.00
2022-09-20T22:49:07.827Z,100.00
2022-09-20T22:51:35.709Z,100.00
2022-09-20T22:54:08.837Z,100.00
2022-09-20T22:56:36.448Z,100.00
2022-09-20T22:59:08.616Z,100.00
2022-09-20T23:01:38.758Z,100.00
2022-09-20T23:04:09.162Z,100.00
2022-09-20T23:06:39.461Z,100.00
2022-09-20T23:09:09.415Z,100.00
2022-09-20T23:11:38.077Z,100.00
2022-09-20T23:14:06.303Z,100.00
2022-09-20T23:16:35.809Z,100.00
2022-09-20T23:19:04.937Z,100.00
2022-09-20T23:21:32.713Z,100.00
2022-09-20T23:24:02.161Z,100.00
2022-09-20T23:26:32.067Z,100.00
2022-09-20T23:29:01.430Z,100.00
2022-09-20T23:31:29.916Z,100.00
2022-09-20T23:33:59.341Z,100.00
2022-09-20T23:36:28.938Z,100.00
2022-09-20T23:38:59.982Z,100.00
2022-09-20T23:41:28.544Z,100.00
2022-09-20T23:43:56.086Z,100.00
2022-09-20T23:46:25.364Z,100.00
2022-09-20T23:48:52.948Z,100.00
2022-09-20T23:51:23.602Z,100.00
2022-09-20T23:53:52.271Z,100.00
2022-09-20T23:56:20.935Z,100.00
2022-09-20T23:58:48.815Z,100.00
